sensor_id;sensor_type;location;lat;lon;timestamp;P1;durP1;ratioP1;P2;durP2;ratioP2
8683;SDS011;4379;59.744;18.206;2023-09-19T00:00:47;5.07;;;3.70;;
8683;SDS011;4379;59.744;18.206;2023-09-19T00:03:16;4.57;;;4.18;;
8683;SDS011;4379;59.744;18.206;2023-09-19T00:05:44;4.93;;;4.53;;
8683;SDS011;4379;59.744;18.206;2023-09-19T00:08:12;6.00;;;4.28;;
8683;SDS011;4379;59.744;18.206;2023-09-19T00:10:40;5.22;;;4.30;;
8683;SDS011;4379;59.744;18.206;2023-09-19T00:13:09;4.60;;;4.20;;
8683;SDS011;4379;59.744;18.206;2023-09-19T00:15:42;5.13;;;4.72;;
8683;SDS011;4379;59.744;18.206;2023-09-19T00:18:20;4.70;;;4.30;;
8683;SDS011;4379;59.744;18.206;2023-09-19T00:20:49;8.02;;;4.78;;
8683;SDS011;4379;59.744;18.206;2023-09-19T00:23:19;5.55;;;4.95;;
8683;SDS011;4379;59.744;18.206;2023-09-19T00:25:47;5.15;;;4.68;;
8683;SDS011;4379;59.744;18.206;2023-09-19T00:28:15;6.22;;;4.90;;
8683;SDS011;4379;59.744;18.206;2023-09-19T00:30:44;5.15;;;4.80;;
8683;SDS011;4379;59.744;18.206;2023-09-19T00:33:17;6.30;;;5.30;;
8683;SDS011;4379;59.744;18.206;2023-09-19T00:35:56;6.50;;;5.07;;
8683;SDS011;4379;59.744;18.206;2023-09-19T00:38:31;7.00;;;5.43;;
8683;SDS011;4379;59.744;18.206;2023-09-19T00:40:58;5.30;;;4.90;;
8683;SDS011;4379;59.744;18.206;2023-09-19T00:43:29;5.60;;;5.20;;
8683;SDS011;4379;59.744;18.206;2023-09-19T00:46:01;5.32;;;4.82;;
8683;SDS011;4379;59.744;18.206;2023-09-19T00:48:31;5.97;;;5.45;;
8683;SDS011;4379;59.744;18.206;2023-09-19T00:51:05;6.05;;;5.55;;
8683;SDS011;4379;59.744;18.206;2023-09-19T00:53:32;6.18;;;5.63;;
8683;SDS011;4379;59.744;18.206;2023-09-19T00:56:01;5.75;;;5.32;;
8683;SDS011;4379;59.744;18.206;2023-09-19T00:58:34;6.32;;;5.75;;
8683;SDS011;4379;59.744;18.206;2023-09-19T01:01:04;6.75;;;6.15;;
8683;SDS011;4379;59.744;18.206;2023-09-19T01:03:37;6.63;;;6.05;;
8683;SDS011;4379;59.744;18.206;2023-09-19T01:06:09;7.07;;;6.47;;
8683;SDS011;4379;59.744;18.206;2023-09-19T01:08:39;6.20;;;5.70;;
8683;SDS011;4379;59.744;18.206;2023-09-19T01:11:12;8.45;;;6.60;;
8683;SDS011;4379;59.744;18.206;2023-09-19T01:14:23;8.57;;;6.80;;
8683;SDS011;4379;59.744;18.206;2023-09-19T01:20:26;7.13;;;6.63;;
8683;SDS011;4379;59.744;18.206;2023-09-19T01:26:06;7.05;;;6.43;;
8683;SDS011;4379;59.744;18.206;2023-09-19T01:28:53;9.52;;;7.18;;
8683;SDS011;4379;59.744;18.206;2023-09-19T01:31:37;7.00;;;6.32;;
8683;SDS011;4379;59.744;18.206;2023-09-19T01:34:08;10.02;;;6.93;;
8683;SDS011;4379;59.744;18.206;2023-09-19T01:36:38;7.28;;;6.72;;
8683;SDS011;4379;59.744;18.206;2023-09-19T01:39:08;7.32;;;6.72;;
8683;SDS011;4379;59.744;18.206;2023-09-19T01:47:32;8.68;;;7.70;;
8683;SDS011;4379;59.744;18.206;2023-09-19T01:53:26;8.07;;;7.47;;
8683;SDS011;4379;59.744;18.206;2023-09-19T01:55:59;8.02;;;7.53;;
8683;SDS011;4379;59.744;18.206;2023-09-19T02:01:00;9.18;;;8.27;;
8683;SDS011;4379;59.744;18.206;2023-09-19T02:03:29;8.55;;;7.65;;
8683;SDS011;4379;59.744;18.206;2023-09-19T02:05:57;9.80;;;8.80;;
8683;SDS011;4379;59.744;18.206;2023-09-19T02:08:25;9.43;;;8.75;;
8683;SDS011;4379;59.744;18.206;2023-09-19T02:10:53;10.05;;;8.68;;
8683;SDS011;4379;59.744;18.206;2023-09-19T02:13:21;9.75;;;8.95;;
8683;SDS011;4379;59.744;18.206;2023-09-19T02:15:54;9.52;;;8.68;;
8683;SDS011;4379;59.744;18.206;2023-09-19T02:18:22;10.80;;;9.77;;
8683;SDS011;4379;59.744;18.206;2023-09-19T02:20:50;10.18;;;9.25;;
8683;SDS011;4379;59.744;18.206;2023-09-19T02:23:20;10.55;;;9.82;;
8683;SDS011;4379;59.744;18.206;2023-09-19T02:25:54;10.00;;;9.00;;
8683;SDS011;4379;59.744;18.206;2023-09-19T02:28:21;10.57;;;9.65;;
8683;SDS011;4379;59.744;18.206;2023-09-19T02:30:49;11.27;;;10.38;;
8683;SDS011;4379;59.744;18.206;2023-09-19T02:33:16;13.02;;;11.55;;
8683;SDS011;4379;59.744;18.206;2023-09-19T02:35:44;12.90;;;11.63;;
8683;SDS011;4379;59.744;18.206;2023-09-19T02:38:11;10.75;;;9.88;;
8683;SDS011;4379;59.744;18.206;2023-09-19T02:40:39;12.13;;;11.13;;
8683;SDS011;4379;59.744;18.206;2023-09-19T02:43:07;11.32;;;10.35;;
8683;SDS011;4379;59.744;18.206;2023-09-19T02:45:35;13.38;;;12.00;;
8683;SDS011;4379;59.744;18.206;2023-09-19T02:48:03;12.90;;;11.70;;
8683;SDS011;4379;59.744;18.206;2023-09-19T02:50:31;13.57;;;12.07;;
8683;SDS011;4379;59.744;18.206;2023-09-19T02:53:00;13.60;;;12.35;;
8683;SDS011;4379;59.744;18.206;2023-09-19T02:55:27;13.45;;;12.35;;
8683;SDS011;4379;59.744;18.206;2023-09-19T02:57:55;14.50;;;13.10;;
8683;SDS011;4379;59.744;18.206;2023-09-19T03:00:23;14.52;;;13.13;;
8683;SDS011;4379;59.744;18.206;2023-09-19T03:02:53;14.40;;;12.90;;
8683;SDS011;4379;59.744;18.206;2023-09-19T03:05:21;16.08;;;14.15;;
8683;SDS011;4379;59.744;18.206;2023-09-19T03:07:50;15.88;;;14.35;;
8683;SDS011;4379;59.744;18.206;2023-09-19T03:10:20;14.60;;;13.30;;
8683;SDS011;4379;59.744;18.206;2023-09-19T03:12:49;16.00;;;14.40;;
8683;SDS011;4379;59.744;18.206;2023-09-19T03:15:17;14.55;;;13.23;;
8683;SDS011;4379;59.744;18.206;2023-09-19T03:17:47;17.13;;;15.45;;
8683;SDS011;4379;59.744;18.206;2023-09-19T03:20:15;16.17;;;14.50;;
8683;SDS011;4379;59.744;18.206;2023-09-19T03:22:48;16.88;;;14.60;;
8683;SDS011;4379;59.744;18.206;2023-09-19T03:25:15;16.45;;;14.85;;
8683;SDS011;4379;59.744;18.206;2023-09-19T03:27:44;18.48;;;16.00;;
8683;SDS011;4379;59.744;18.206;2023-09-19T03:30:12;16.85;;;15.25;;
8683;SDS011;4379;59.744;18.206;2023-09-19T03:32:47;17.70;;;15.85;;
8683;SDS011;4379;59.744;18.206;2023-09-19T03:35:17;19.67;;;17.60;;
8683;SDS011;4379;59.744;18.206;2023-09-19T03:37:45;18.55;;;16.63;;
8683;SDS011;4379;59.744;18.206;2023-09-19T03:40:12;18.15;;;16.40;;
8683;SDS011;4379;59.744;18.206;2023-09-19T03:42:40;18.48;;;16.77;;
8683;SDS011;4379;59.744;18.206;2023-09-19T03:45:08;19.35;;;17.30;;
8683;SDS011;4379;59.744;18.206;2023-09-19T03:47:39;19.08;;;17.23;;
8683;SDS011;4379;59.744;18.206;2023-09-19T03:50:07;18.20;;;16.48;;
8683;SDS011;4379;59.744;18.206;2023-09-19T03:52:38;21.17;;;17.17;;
8683;SDS011;4379;59.744;18.206;2023-09-19T03:55:05;22.73;;;18.60;;
8683;SDS011;4379;59.744;18.206;2023-09-19T03:57:33;20.10;;;18.08;;
8683;SDS011;4379;59.744;18.206;2023-09-19T04:00:02;19.20;;;17.60;;
8683;SDS011;4379;59.744;18.206;2023-09-19T04:02:39;20.10;;;17.85;;
8683;SDS011;4379;59.744;18.206;2023-09-19T04:05:06;21.10;;;19.08;;
8683;SDS011;4379;59.744;18.206;2023-09-19T04:07:34;23.45;;;19.25;;
8683;SDS011;4379;59.744;18.206;2023-09-19T04:10:02;19.20;;;17.55;;
8683;SDS011;4379;59.744;18.206;2023-09-19T04:12:30;20.90;;;18.75;;
8683;SDS011;4379;59.744;18.206;2023-09-19T04:14:58;19.35;;;17.30;;
8683;SDS011;4379;59.744;18.206;2023-09-19T04:17:26;20.73;;;18.52;;
8683;SDS011;4379;59.744;18.206;2023-09-19T04:19:53;21.02;;;18.83;;
8683;SDS011;4379;59.744;18.206;2023-09-19T04:22:21;20.70;;;18.50;;
8683;SDS011;4379;59.744;18.206;2023-09-19T04:24:48;20.40;;;18.25;;
8683;SDS011;4379;59.744;18.206;2023-09-19T04:27:16;22.95;;;20.50;;
8683;SDS011;4379;59.744;18.206;2023-09-19T04:29:45;20.90;;;19.05;;
8683;SDS011;4379;59.744;18.206;2023-09-19T04:32:13;22.33;;;19.15;;
8683;SDS011;4379;59.744;18.206;2023-09-19T04:34:40;21.27;;;19.25;;
8683;SDS011;4379;59.744;18.206;2023-09-19T04:37:08;21.77;;;19.67;;
8683;SDS011;4379;59.744;18.206;2023-09-19T04:39:35;18.58;;;16.85;;
8683;SDS011;4379;59.744;18.206;2023-09-19T04:42:03;19.00;;;17.35;;
8683;SDS011;4379;59.744;18.206;2023-09-19T04:44:31;20.05;;;18.35;;
8683;SDS011;4379;59.744;18.206;2023-09-19T04:46:58;19.33;;;17.42;;
8683;SDS011;4379;59.744;18.206;2023-09-19T04:49:27;19.55;;;17.48;;
8683;SDS011;4379;59.744;18.206;2023-09-19T04:51:55;21.23;;;19.15;;
8683;SDS011;4379;59.744;18.206;2023-09-19T04:54:22;21.58;;;19.60;;
8683;SDS011;4379;59.744;18.206;2023-09-19T04:56:50;20.30;;;18.48;;
8683;SDS011;4379;59.744;18.206;2023-09-19T04:59:17;20.60;;;18.33;;
8683;SDS011;4379;59.744;18.206;2023-09-19T05:01:45;20.52;;;18.45;;
8683;SDS011;4379;59.744;18.206;2023-09-19T05:04:13;21.60;;;19.60;;
8683;SDS011;4379;59.744;18.206;2023-09-19T05:06:41;21.00;;;18.88;;
8683;SDS011;4379;59.744;18.206;2023-09-19T05:09:12;20.33;;;18.23;;
8683;SDS011;4379;59.744;18.206;2023-09-19T05:11:40;19.90;;;18.02;;
8683;SDS011;4379;59.744;18.206;2023-09-19T05:14:07;18.90;;;17.15;;
8683;SDS011;4379;59.744;18.206;2023-09-19T05:16:34;20.00;;;18.15;;
8683;SDS011;4379;59.744;18.206;2023-09-19T05:19:02;19.65;;;17.75;;
8683;SDS011;4379;59.744;18.206;2023-09-19T05:21:32;20.48;;;18.40;;
8683;SDS011;4379;59.744;18.206;2023-09-19T05:24:00;21.38;;;19.05;;
8683;SDS011;4379;59.744;18.206;2023-09-19T05:26:28;20.25;;;18.13;;
8683;SDS011;4379;59.744;18.206;2023-09-19T05:28:55;18.98;;;17.15;;
8683;SDS011;4379;59.744;18.206;2023-09-19T05:31:23;18.00;;;16.50;;
8683;SDS011;4379;59.744;18.206;2023-09-19T05:33:52;18.80;;;17.00;;
8683;SDS011;4379;59.744;18.206;2023-09-19T05:36:21;18.77;;;17.13;;
8683;SDS011;4379;59.744;18.206;2023-09-19T05:38:48;20.08;;;18.13;;
8683;SDS011;4379;59.744;18.206;2023-09-19T05:41:17;20.52;;;18.50;;
8683;SDS011;4379;59.744;18.206;2023-09-19T05:43:45;19.17;;;17.60;;
8683;SDS011;4379;59.744;18.206;2023-09-19T05:46:12;20.35;;;18.55;;
8683;SDS011;4379;59.744;18.206;2023-09-19T05:48:43;19.90;;;17.92;;
8683;SDS011;4379;59.744;18.206;2023-09-19T05:51:10;20.20;;;18.00;;
8683;SDS011;4379;59.744;18.206;2023-09-19T05:53:38;20.17;;;18.30;;
8683;SDS011;4379;59.744;18.206;2023-09-19T05:56:06;18.23;;;16.52;;
8683;SDS011;4379;59.744;18.206;2023-09-19T05:58:33;18.48;;;16.88;;
8683;SDS011;4379;59.744;18.206;2023-09-19T06:01:01;17.48;;;16.02;;
8683;SDS011;4379;59.744;18.206;2023-09-19T06:03:28;18.23;;;16.67;;
8683;SDS011;4379;59.744;18.206;2023-09-19T06:05:57;19.05;;;17.20;;
8683;SDS011;4379;59.744;18.206;2023-09-19T06:08:26;18.20;;;16.50;;
8683;SDS011;4379;59.744;18.206;2023-09-19T06:10:53;17.98;;;16.17;;
8683;SDS011;4379;59.744;18.206;2023-09-19T06:13:21;16.70;;;15.32;;
8683;SDS011;4379;59.744;18.206;2023-09-19T06:15:50;17.38;;;15.90;;
8683;SDS011;4379;59.744;18.206;2023-09-19T06:18:18;16.48;;;14.98;;
8683;SDS011;4379;59.744;18.206;2023-09-19T06:20:48;15.93;;;14.55;;
8683;SDS011;4379;59.744;18.206;2023-09-19T06:23:19;15.57;;;14.38;;
8683;SDS011;4379;59.744;18.206;2023-09-19T06:25:49;14.77;;;13.68;;
8683;SDS011;4379;59.744;18.206;2023-09-19T06:28:25;15.10;;;13.68;;
8683;SDS011;4379;59.744;18.206;2023-09-19T06:30:55;14.18;;;13.27;;
8683;SDS011;4379;59.744;18.206;2023-09-19T06:33:22;14.20;;;12.82;;
8683;SDS011;4379;59.744;18.206;2023-09-19T06:35:51;13.68;;;12.77;;
8683;SDS011;4379;59.744;18.206;2023-09-19T06:38:23;12.30;;;11.38;;
8683;SDS011;4379;59.744;18.206;2023-09-19T06:40:51;13.15;;;12.05;;
8683;SDS011;4379;59.744;18.206;2023-09-19T06:43:21;12.80;;;11.90;;
8683;SDS011;4379;59.744;18.206;2023-09-19T06:45:48;12.20;;;11.20;;
8683;SDS011;4379;59.744;18.206;2023-09-19T06:48:18;12.85;;;11.80;;
8683;SDS011;4379;59.744;18.206;2023-09-19T06:50:48;11.60;;;10.98;;
8683;SDS011;4379;59.744;18.206;2023-09-19T06:53:16;13.23;;;12.15;;
8683;SDS011;4379;59.744;18.206;2023-09-19T06:55:44;13.40;;;12.05;;
8683;SDS011;4379;59.744;18.206;2023-09-19T06:58:12;12.15;;;11.32;;
8683;SDS011;4379;59.744;18.206;2023-09-19T07:00:39;13.88;;;12.77;;
8683;SDS011;4379;59.744;18.206;2023-09-19T07:03:07;13.77;;;12.63;;
8683;SDS011;4379;59.744;18.206;2023-09-19T07:05:39;13.75;;;12.50;;
8683;SDS011;4379;59.744;18.206;2023-09-19T07:08:07;13.68;;;12.45;;
8683;SDS011;4379;59.744;18.206;2023-09-19T07:10:40;13.20;;;12.15;;
8683;SDS011;4379;59.744;18.206;2023-09-19T07:13:08;13.90;;;12.80;;
8683;SDS011;4379;59.744;18.206;2023-09-19T07:15:37;13.77;;;12.68;;
8683;SDS011;4379;59.744;18.206;2023-09-19T07:18:08;14.73;;;13.63;;
8683;SDS011;4379;59.744;18.206;2023-09-19T07:20:38;13.25;;;12.35;;
8683;SDS011;4379;59.744;18.206;2023-09-19T07:23:05;14.05;;;12.93;;
8683;SDS011;4379;59.744;18.206;2023-09-19T07:25:32;14.63;;;13.52;;
8683;SDS011;4379;59.744;18.206;2023-09-19T07:28:02;13.63;;;12.63;;
8683;SDS011;4379;59.744;18.206;2023-09-19T07:30:30;13.88;;;12.90;;
8683;SDS011;4379;59.744;18.206;2023-09-19T07:32:57;14.68;;;13.63;;
8683;SDS011;4379;59.744;18.206;2023-09-19T07:35:25;14.80;;;13.65;;
8683;SDS011;4379;59.744;18.206;2023-09-19T07:37:52;14.82;;;13.70;;
8683;SDS011;4379;59.744;18.206;2023-09-19T07:40:19;15.65;;;14.32;;
8683;SDS011;4379;59.744;18.206;2023-09-19T07:42:48;15.50;;;14.30;;
8683;SDS011;4379;59.744;18.206;2023-09-19T07:45:17;15.00;;;13.73;;
8683;SDS011;4379;59.744;18.206;2023-09-19T07:47:45;15.80;;;14.43;;
8683;SDS011;4379;59.744;18.206;2023-09-19T07:50:14;15.23;;;14.05;;
8683;SDS011;4379;59.744;18.206;2023-09-19T07:52:46;15.93;;;14.77;;
8683;SDS011;4379;59.744;18.206;2023-09-19T07:55:14;16.48;;;15.00;;
8683;SDS011;4379;59.744;18.206;2023-09-19T07:57:44;13.75;;;12.95;;
8683;SDS011;4379;59.744;18.206;2023-09-19T08:00:11;14.43;;;13.32;;
8683;SDS011;4379;59.744;18.206;2023-09-19T08:02:39;13.90;;;12.90;;
8683;SDS011;4379;59.744;18.206;2023-09-19T08:05:08;13.43;;;12.38;;
8683;SDS011;4379;59.744;18.206;2023-09-19T08:07:37;12.52;;;11.80;;
8683;SDS011;4379;59.744;18.206;2023-09-19T08:10:07;12.90;;;11.98;;
8683;SDS011;4379;59.744;18.206;2023-09-19T08:12:35;11.23;;;10.52;;
8683;SDS011;4379;59.744;18.206;2023-09-19T08:15:03;11.23;;;10.52;;
8683;SDS011;4379;59.744;18.206;2023-09-19T08:17:34;10.15;;;9.55;;
8683;SDS011;4379;59.744;18.206;2023-09-19T08:20:03;10.45;;;9.85;;
8683;SDS011;4379;59.744;18.206;2023-09-19T08:22:32;10.70;;;10.00;;
8683;SDS011;4379;59.744;18.206;2023-09-19T08:24:59;10.30;;;9.70;;
8683;SDS011;4379;59.744;18.206;2023-09-19T08:27:31;10.30;;;9.60;;
8683;SDS011;4379;59.744;18.206;2023-09-19T08:29:58;9.60;;;9.10;;
8683;SDS011;4379;59.744;18.206;2023-09-19T08:32:25;10.15;;;9.63;;
8683;SDS011;4379;59.744;18.206;2023-09-19T08:34:54;11.10;;;10.50;;
8683;SDS011;4379;59.744;18.206;2023-09-19T08:37:22;10.32;;;9.70;;
8683;SDS011;4379;59.744;18.206;2023-09-19T08:39:50;9.68;;;9.07;;
8683;SDS011;4379;59.744;18.206;2023-09-19T08:42:17;9.48;;;8.98;;
8683;SDS011;4379;59.744;18.206;2023-09-19T08:44:47;9.25;;;8.75;;
8683;SDS011;4379;59.744;18.206;2023-09-19T08:47:15;9.25;;;8.65;;
8683;SDS011;4379;59.744;18.206;2023-09-19T08:52:41;8.82;;;8.32;;
8683;SDS011;4379;59.744;18.206;2023-09-19T08:55:11;8.32;;;7.93;;
8683;SDS011;4379;59.744;18.206;2023-09-19T08:57:49;9.70;;;9.02;;
8683;SDS011;4379;59.744;18.206;2023-09-19T09:00:19;9.82;;;8.98;;
8683;SDS011;4379;59.744;18.206;2023-09-19T09:02:48;8.90;;;8.30;;
8683;SDS011;4379;59.744;18.206;2023-09-19T09:05:16;9.38;;;8.60;;
8683;SDS011;4379;59.744;18.206;2023-09-19T09:07:49;9.18;;;8.48;;
8683;SDS011;4379;59.744;18.206;2023-09-19T09:10:23;8.82;;;8.32;;
8683;SDS011;4379;59.744;18.206;2023-09-19T09:12:53;9.40;;;8.60;;
8683;SDS011;4379;59.744;18.206;2023-09-19T09:15:25;9.20;;;8.70;;
8683;SDS011;4379;59.744;18.206;2023-09-19T09:17:52;9.85;;;9.15;;
8683;SDS011;4379;59.744;18.206;2023-09-19T09:20:21;9.60;;;9.10;;
8683;SDS011;4379;59.744;18.206;2023-09-19T09:22:52;9.00;;;8.50;;
8683;SDS011;4379;59.744;18.206;2023-09-19T09:25:21;9.75;;;9.13;;
8683;SDS011;4379;59.744;18.206;2023-09-19T09:27:59;9.45;;;8.65;;
8683;SDS011;4379;59.744;18.206;2023-09-19T09:30:35;9.43;;;8.70;;
8683;SDS011;4379;59.744;18.206;2023-09-19T09:33:07;10.20;;;9.40;;
8683;SDS011;4379;59.744;18.206;2023-09-19T09:38:19;9.18;;;8.38;;
8683;SDS011;4379;59.744;18.206;2023-09-19T09:40:48;9.55;;;8.85;;
8683;SDS011;4379;59.744;18.206;2023-09-19T09:43:37;10.23;;;9.10;;
8683;SDS011;4379;59.744;18.206;2023-09-19T09:46:15;8.52;;;7.82;;
8683;SDS011;4379;59.744;18.206;2023-09-19T09:49:03;8.45;;;7.57;;
8683;SDS011;4379;59.744;18.206;2023-09-19T09:52:01;8.65;;;8.05;;
8683;SDS011;4379;59.744;18.206;2023-09-19T09:54:37;9.05;;;8.45;;
8683;SDS011;4379;59.744;18.206;2023-09-19T09:57:06;8.95;;;7.68;;
8683;SDS011;4379;59.744;18.206;2023-09-19T10:02:18;7.88;;;7.15;;
8683;SDS011;4379;59.744;18.206;2023-09-19T10:05:11;8.05;;;7.25;;
8683;SDS011;4379;59.744;18.206;2023-09-19T10:07:55;8.70;;;8.10;;
8683;SDS011;4379;59.744;18.206;2023-09-19T10:10:36;8.55;;;7.93;;
8683;SDS011;4379;59.744;18.206;2023-09-19T10:13:11;7.97;;;7.40;;
8683;SDS011;4379;59.744;18.206;2023-09-19T10:15:42;8.27;;;7.53;;
8683;SDS011;4379;59.744;18.206;2023-09-19T10:18:21;7.68;;;7.00;;
8683;SDS011;4379;59.744;18.206;2023-09-19T10:20:55;7.75;;;7.10;;
8683;SDS011;4379;59.744;18.206;2023-09-19T10:23:24;6.72;;;6.32;;
8683;SDS011;4379;59.744;18.206;2023-09-19T10:25:56;6.43;;;5.93;;
8683;SDS011;4379;59.744;18.206;2023-09-19T10:28:25;6.10;;;5.60;;
8683;SDS011;4379;59.744;18.206;2023-09-19T10:30:55;6.28;;;5.80;;
8683;SDS011;4379;59.744;18.206;2023-09-19T10:33:25;5.80;;;5.40;;
8683;SDS011;4379;59.744;18.206;2023-09-19T10:35:53;6.20;;;5.60;;
8683;SDS011;4379;59.744;18.206;2023-09-19T10:38:24;6.07;;;5.50;;
8683;SDS011;4379;59.744;18.206;2023-09-19T10:40:54;5.90;;;5.30;;
8683;SDS011;4379;59.744;18.206;2023-09-19T10:43:29;5.63;;;5.32;;
8683;SDS011;4379;59.744;18.206;2023-09-19T10:46:03;5.55;;;5.25;;
8683;SDS011;4379;59.744;18.206;2023-09-19T10:48:35;5.53;;;5.13;;
8683;SDS011;4379;59.744;18.206;2023-09-19T10:51:20;5.13;;;4.80;;
8683;SDS011;4379;59.744;18.206;2023-09-19T10:56:29;4.80;;;4.60;;
8683;SDS011;4379;59.744;18.206;2023-09-19T10:59:06;5.20;;;4.80;;
8683;SDS011;4379;59.744;18.206;2023-09-19T11:01:43;5.18;;;4.78;;
8683;SDS011;4379;59.744;18.206;2023-09-19T11:07:06;4.95;;;4.45;;
8683;SDS011;4379;59.744;18.206;2023-09-19T11:09:50;4.68;;;4.30;;
8683;SDS011;4379;59.744;18.206;2023-09-19T11:14:59;4.65;;;4.20;;
8683;SDS011;4379;59.744;18.206;2023-09-19T11:17:30;4.65;;;4.38;;
8683;SDS011;4379;59.744;18.206;2023-09-19T11:25:46;4.05;;;3.75;;
8683;SDS011;4379;59.744;18.206;2023-09-19T11:30:57;4.13;;;3.92;;
8683;SDS011;4379;59.744;18.206;2023-09-19T11:33:26;3.72;;;3.50;;
8683;SDS011;4379;59.744;18.206;2023-09-19T11:41:57;2.33;;;2.20;;
8683;SDS011;4379;59.744;18.206;2023-09-19T11:47:01;3.42;;;3.20;;
8683;SDS011;4379;59.744;18.206;2023-09-19T11:49:31;3.10;;;2.80;;
8683;SDS011;4379;59.744;18.206;2023-09-19T11:52:00;3.30;;;3.10;;
8683;SDS011;4379;59.744;18.206;2023-09-19T11:54:31;2.40;;;2.30;;
8683;SDS011;4379;59.744;18.206;2023-09-19T11:56:59;2.30;;;2.20;;
8683;SDS011;4379;59.744;18.206;2023-09-19T11:59:28;2.17;;;1.98;;
8683;SDS011;4379;59.744;18.206;2023-09-19T12:01:57;2.35;;;2.25;;
8683;SDS011;4379;59.744;18.206;2023-09-19T12:04:38;2.20;;;2.10;;
8683;SDS011;4379;59.744;18.206;2023-09-19T12:07:09;2.20;;;1.80;;
8683;SDS011;4379;59.744;18.206;2023-09-19T12:09:49;1.75;;;1.65;;
8683;SDS011;4379;59.744;18.206;2023-09-19T12:12:28;2.33;;;1.80;;
8683;SDS011;4379;59.744;18.206;2023-09-19T12:15:00;1.77;;;1.58;;
8683;SDS011;4379;59.744;18.206;2023-09-19T12:17:37;1.70;;;1.60;;
8683;SDS011;4379;59.744;18.206;2023-09-19T12:20:06;1.88;;;1.77;;
8683;SDS011;4379;59.744;18.206;2023-09-19T12:22:43;1.50;;;1.40;;
8683;SDS011;4379;59.744;18.206;2023-09-19T12:25:15;2.72;;;1.73;;
8683;SDS011;4379;59.744;18.206;2023-09-19T12:27:48;1.75;;;1.58;;
8683;SDS011;4379;59.744;18.206;2023-09-19T12:30:19;3.13;;;1.65;;
8683;SDS011;4379;59.744;18.206;2023-09-19T12:32:54;3.13;;;1.52;;
8683;SDS011;4379;59.744;18.206;2023-09-19T12:35:29;1.48;;;1.23;;
8683;SDS011;4379;59.744;18.206;2023-09-19T12:38:02;1.88;;;1.75;;
8683;SDS011;4379;59.744;18.206;2023-09-19T12:40:31;1.58;;;1.48;;
8683;SDS011;4379;59.744;18.206;2023-09-19T12:43:01;1.75;;;1.58;;
8683;SDS011;4379;59.744;18.206;2023-09-19T12:45:31;1.42;;;1.33;;
8683;SDS011;4379;59.744;18.206;2023-09-19T12:51:09;1.48;;;1.40;;
8683;SDS011;4379;59.744;18.206;2023-09-19T12:53:43;1.63;;;1.60;;
8683;SDS011;4379;59.744;18.206;2023-09-19T12:56:13;2.05;;;1.60;;
8683;SDS011;4379;59.744;18.206;2023-09-19T12:59:03;1.73;;;1.30;;
8683;SDS011;4379;59.744;18.206;2023-09-19T13:01:33;1.63;;;1.40;;
8683;SDS011;4379;59.744;18.206;2023-09-19T13:04:16;1.67;;;1.55;;
8683;SDS011;4379;59.744;18.206;2023-09-19T13:06:50;2.45;;;1.65;;
8683;SDS011;4379;59.744;18.206;2023-09-19T13:09:19;1.70;;;1.60;;
8683;SDS011;4379;59.744;18.206;2023-09-19T13:11:47;1.58;;;1.50;;
8683;SDS011;4379;59.744;18.206;2023-09-19T13:14:18;4.32;;;1.77;;
8683;SDS011;4379;59.744;18.206;2023-09-19T13:17:01;2.03;;;1.55;;
8683;SDS011;4379;59.744;18.206;2023-09-19T13:19:35;2.45;;;1.80;;
8683;SDS011;4379;59.744;18.206;2023-09-19T13:25:07;2.42;;;1.88;;
8683;SDS011;4379;59.744;18.206;2023-09-19T13:27:41;2.05;;;1.70;;
8683;SDS011;4379;59.744;18.206;2023-09-19T13:30:12;1.30;;;1.20;;
8683;SDS011;4379;59.744;18.206;2023-09-19T13:32:40;2.30;;;1.52;;
8683;SDS011;4379;59.744;18.206;2023-09-19T13:35:10;3.15;;;1.80;;
8683;SDS011;4379;59.744;18.206;2023-09-19T13:37:39;2.70;;;1.63;;
8683;SDS011;4379;59.744;18.206;2023-09-19T13:40:08;2.08;;;1.95;;
8683;SDS011;4379;59.744;18.206;2023-09-19T13:42:40;2.33;;;2.13;;
8683;SDS011;4379;59.744;18.206;2023-09-19T13:45:08;2.17;;;2.00;;
8683;SDS011;4379;59.744;18.206;2023-09-19T13:47:42;1.80;;;1.70;;
8683;SDS011;4379;59.744;18.206;2023-09-19T13:50:10;1.80;;;1.70;;
8683;SDS011;4379;59.744;18.206;2023-09-19T13:52:40;2.25;;;1.60;;
8683;SDS011;4379;59.744;18.206;2023-09-19T13:55:07;1.98;;;1.88;;
8683;SDS011;4379;59.744;18.206;2023-09-19T13:57:35;2.15;;;2.05;;
8683;SDS011;4379;59.744;18.206;2023-09-19T14:00:03;2.35;;;1.80;;
8683;SDS011;4379;59.744;18.206;2023-09-19T14:02:31;1.52;;;1.42;;
8683;SDS011;4379;59.744;18.206;2023-09-19T14:04:59;2.08;;;1.98;;
8683;SDS011;4379;59.744;18.206;2023-09-19T14:07:27;1.85;;;1.70;;
8683;SDS011;4379;59.744;18.206;2023-09-19T14:09:54;1.98;;;1.83;;
8683;SDS011;4379;59.744;18.206;2023-09-19T14:12:22;1.95;;;1.70;;
8683;SDS011;4379;59.744;18.206;2023-09-19T14:14:49;1.63;;;1.52;;
8683;SDS011;4379;59.744;18.206;2023-09-19T14:17:17;1.60;;;1.50;;
8683;SDS011;4379;59.744;18.206;2023-09-19T14:19:45;2.78;;;1.70;;
8683;SDS011;4379;59.744;18.206;2023-09-19T14:22:13;4.35;;;1.63;;
8683;SDS011;4379;59.744;18.206;2023-09-19T14:24:40;4.13;;;1.73;;
8683;SDS011;4379;59.744;18.206;2023-09-19T14:27:08;1.70;;;1.40;;
8683;SDS011;4379;59.744;18.206;2023-09-19T14:29:36;2.47;;;1.58;;
8683;SDS011;4379;59.744;18.206;2023-09-19T14:32:04;2.38;;;1.40;;
8683;SDS011;4379;59.744;18.206;2023-09-19T14:34:32;2.25;;;1.33;;
8683;SDS011;4379;59.744;18.206;2023-09-19T14:36:59;3.13;;;1.55;;
8683;SDS011;4379;59.744;18.206;2023-09-19T14:39:27;3.53;;;1.50;;
8683;SDS011;4379;59.744;18.206;2023-09-19T14:41:55;3.97;;;1.20;;
8683;SDS011;4379;59.744;18.206;2023-09-19T14:44:22;1.42;;;1.33;;
8683;SDS011;4379;59.744;18.206;2023-09-19T14:46:50;1.50;;;1.40;;
8683;SDS011;4379;59.744;18.206;2023-09-19T14:49:17;1.45;;;1.35;;
8683;SDS011;4379;59.744;18.206;2023-09-19T14:51:46;1.58;;;1.45;;
8683;SDS011;4379;59.744;18.206;2023-09-19T14:54:16;1.33;;;1.23;;
8683;SDS011;4379;59.744;18.206;2023-09-19T14:56:44;3.03;;;1.35;;
8683;SDS011;4379;59.744;18.206;2023-09-19T14:59:12;3.75;;;1.35;;
8683;SDS011;4379;59.744;18.206;2023-09-19T15:01:39;2.53;;;1.60;;
8683;SDS011;4379;59.744;18.206;2023-09-19T15:04:08;2.35;;;1.45;;
8683;SDS011;4379;59.744;18.206;2023-09-19T15:06:35;2.03;;;1.50;;
8683;SDS011;4379;59.744;18.206;2023-09-19T15:09:06;1.73;;;1.63;;
8683;SDS011;4379;59.744;18.206;2023-09-19T15:11:35;2.08;;;1.63;;
8683;SDS011;4379;59.744;18.206;2023-09-19T15:14:03;5.22;;;1.70;;
8683;SDS011;4379;59.744;18.206;2023-09-19T15:16:33;1.67;;;1.40;;
8683;SDS011;4379;59.744;18.206;2023-09-19T15:19:03;1.38;;;1.27;;
8683;SDS011;4379;59.744;18.206;2023-09-19T15:21:31;1.50;;;1.40;;
8683;SDS011;4379;59.744;18.206;2023-09-19T15:23:59;1.58;;;1.48;;
8683;SDS011;4379;59.744;18.206;2023-09-19T15:26:27;2.05;;;1.15;;
8683;SDS011;4379;59.744;18.206;2023-09-19T15:28:54;1.95;;;1.50;;
8683;SDS011;4379;59.744;18.206;2023-09-19T15:31:22;4.00;;;1.27;;
8683;SDS011;4379;59.744;18.206;2023-09-19T15:33:49;1.48;;;1.38;;
8683;SDS011;4379;59.744;18.206;2023-09-19T15:36:17;3.03;;;1.42;;
8683;SDS011;4379;59.744;18.206;2023-09-19T15:38:58;1.33;;;1.23;;
8683;SDS011;4379;59.744;18.206;2023-09-19T15:41:27;1.00;;;1.00;;
8683;SDS011;4379;59.744;18.206;2023-09-19T15:43:57;3.15;;;1.20;;
8683;SDS011;4379;59.744;18.206;2023-09-19T15:46:32;1.80;;;1.20;;
8683;SDS011;4379;59.744;18.206;2023-09-19T15:49:02;2.85;;;1.05;;
8683;SDS011;4379;59.744;18.206;2023-09-19T15:51:30;1.48;;;1.17;;
8683;SDS011;4379;59.744;18.206;2023-09-19T15:53:58;1.27;;;0.82;;
8683;SDS011;4379;59.744;18.206;2023-09-19T15:56:27;1.92;;;1.00;;
8683;SDS011;4379;59.744;18.206;2023-09-19T15:58:55;2.35;;;0.90;;
8683;SDS011;4379;59.744;18.206;2023-09-19T16:01:23;0.80;;;0.80;;
8683;SDS011;4379;59.744;18.206;2023-09-19T16:03:51;1.05;;;1.00;;
8683;SDS011;4379;59.744;18.206;2023-09-19T16:06:21;0.93;;;0.80;;